Terminal Aerodrome Forecast
Issued by NWS

Home | Current Version | Previous Version | Text Only | Print | Product List | Glossary On
Versions: 1 2 3 4 5 6 7 8 9 10 11 12 13 14 15 16 17 18 19
000
FTUS44 KLZK 211100
TAFHOT
TAF
KHOT 211126Z 2112/2212 00000KT 3SM BR SKC
      TEMPO 2112/2114 1/2SM FG VV001
     FM211400 06003KT P6SM SKC
      TEMPO 2114/2115 5SM BR
     FM220100 08003KT P6SM SKC=

USA.gov is the U.S. government's official web portal to all federal, state and local government web resources and services.